createdAt,value
2022-11-05T00:00:51.650Z,28.10
2022-11-05T00:02:11.490Z,29.23
2022-11-05T00:03:31.392Z,28.50
2022-11-05T00:04:51.540Z,28.83
2022-11-05T00:06:12.664Z,29.33
2022-11-05T00:07:40.874Z,27.30
2022-11-05T00:09:01.111Z,28.77
2022-11-05T00:10:07.180Z,27.50
2022-11-05T00:11:16.839Z,28.23
2022-11-05T00:12:38.275Z,27.80
2022-11-05T00:13:58.410Z,28.47
2022-11-05T00:15:18.365Z,27.23
2022-11-05T00:16:38.366Z,28.20
2022-11-05T00:17:40.855Z,28.53
2022-11-05T00:18:42.414Z,28.53
2022-11-05T00:19:43.935Z,29.30
2022-11-05T00:20:45.486Z,28.77
2022-11-05T00:22:05.815Z,28.67
2022-11-05T00:23:25.627Z,28.60
2022-11-05T00:24:46.090Z,29.20
2022-11-05T00:26:04.580Z,28.50
2022-11-05T00:27:06.368Z,28.33
2022-11-05T00:28:07.865Z,26.27
2022-11-05T00:29:09.384Z,27.57
2022-11-05T00:30:12.185Z,26.07
2022-11-05T00:31:14.501Z,27.20
2022-11-05T00:32:16.013Z,25.93
2022-11-05T00:33:17.614Z,25.97
2022-11-05T00:34:19.107Z,25.83
2022-11-05T00:35:22.556Z,24.77
2022-11-05T00:36:24.107Z,25.07
2022-11-05T00:37:28.123Z,24.37
2022-11-05T00:38:30.524Z,24.60
2022-11-05T00:39:32.054Z,23.73
2022-11-05T00:40:33.601Z,24.97
2022-11-05T00:41:35.126Z,23.80
2022-11-05T00:42:55.304Z,24.50
2022-11-05T00:44:15.437Z,23.37
2022-11-05T00:45:17.091Z,23.70
2022-11-05T00:46:18.607Z,24.97
2022-11-05T00:47:38.519Z,24.33
2022-11-05T00:48:58.341Z,25.40
2022-11-05T00:49:59.889Z,24.50
2022-11-05T00:51:01.523Z,25.63
2022-11-05T00:52:21.838Z,24.80
2022-11-05T00:53:23.667Z,26.03
2022-11-05T00:54:25.181Z,25.27
2022-11-05T00:55:33.390Z,26.07
2022-11-05T00:56:34.907Z,25.20
2022-11-05T00:57:36.430Z,25.73
2022-11-05T00:58:38.143Z,25.27
2022-11-05T00:59:39.662Z,25.43
2022-11-05T01:00:43.913Z,25.63
2022-11-05T01:01:45.536Z,24.97
2022-11-05T01:02:47.300Z,26.00
2022-11-05T01:03:51.669Z,25.33
2022-11-05T01:04:53.600Z,26.33
2022-11-05T01:06:05.522Z,25.97
2022-11-05T01:07:07.019Z,27.10
2022-11-05T01:08:09.819Z,25.00
2022-11-05T01:09:11.407Z,27.13
2022-11-05T01:10:13.213Z,25.57
2022-11-05T01:11:35.275Z,25.53
2022-11-05T01:12:36.828Z,26.60
2022-11-05T01:13:40.356Z,26.60
2022-11-05T01:14:41.966Z,26.43
2022-11-05T01:15:43.666Z,25.60
2022-11-05T01:16:45.553Z,26.97
2022-11-05T01:17:47.626Z,25.97
2022-11-05T01:18:49.131Z,26.30
2022-11-05T01:19:51.201Z,26.30
2022-11-05T01:20:53.129Z,26.43
2022-11-05T01:21:54.663Z,26.13
2022-11-05T01:22:56.198Z,25.47
2022-11-05T01:23:57.738Z,26.37
2022-11-05T01:24:59.485Z,26.27
2022-11-05T01:26:01.007Z,25.47
2022-11-05T01:27:02.504Z,25.47
2022-11-05T01:28:04.762Z,25.47
2022-11-05T01:29:06.295Z,25.53
2022-11-05T01:30:08.715Z,26.20
2022-11-05T01:31:10.328Z,26.23
2022-11-05T01:32:11.858Z,25.40
2022-11-05T01:33:13.627Z,25.40
2022-11-05T01:34:15.358Z,26.57
2022-11-05T01:35:18.039Z,26.33
2022-11-05T01:36:19.574Z,25.63
2022-11-05T01:37:21.123Z,23.77
2022-11-05T01:38:22.731Z,25.40
2022-11-05T01:39:24.287Z,26.30
2022-11-05T01:40:26.497Z,25.53
2022-11-05T01:41:28.054Z,26.30
2022-11-05T01:42:33.084Z,25.57
2022-11-05T01:43:56.440Z,26.90
2022-11-05T01:45:20.141Z,27.60
2022-11-05T01:46:26.782Z,28.50
2022-11-05T01:47:46.594Z,26.80
2022-11-05T01:48:51.746Z,27.33
2022-11-05T01:49:53.940Z,27.57
2022-11-05T01:51:01.230Z,26.77
2022-11-05T01:52:04.812Z,25.93
2022-11-05T01:53:26.447Z,26.80
2022-11-05T01:54:32.111Z,26.33
2022-11-05T01:55:37.045Z,25.50
2022-11-05T01:56:43.682Z,26.27
2022-11-05T01:57:45.381Z,27.20
2022-11-05T01:58:59.295Z,27.07
2022-11-05T02:00:02.183Z,26.47
2022-11-05T02:01:03.763Z,26.77
2022-11-05T02:02:07.813Z,25.77
2022-11-05T02:03:10.125Z,25.87
2022-11-05T02:04:17.729Z,26.93
2022-11-05T02:05:19.363Z,27.40
2022-11-05T02:06:21.529Z,26.57
2022-11-05T02:07:26.240Z,28.03
2022-11-05T02:08:57.115Z,26.77
2022-11-05T02:10:08.182Z,27.77
2022-11-05T02:11:13.159Z,27.63
2022-11-05T02:12:14.999Z,27.23
2022-11-05T02:13:17.015Z,27.17
2022-11-05T02:14:21.795Z,27.23
2022-11-05T02:15:55.793Z,27.77
2022-11-05T02:17:36.103Z,26.47
2022-11-05T02:18:53.018Z,27.37
2022-11-05T02:20:39.592Z,27.67
2022-11-05T02:21:59.279Z,27.87
2022-11-05T02:23:22.546Z,27.77
2022-11-05T02:24:48.863Z,28.37
2022-11-05T02:26:18.280Z,28.63
2022-11-05T02:27:22.116Z,27.80
2022-11-05T02:29:05.217Z,28.60
2022-11-05T02:30:07.336Z,27.30
2022-11-05T02:31:17.598Z,27.07
2022-11-05T02:32:40.658Z,27.27
2022-11-05T02:33:56.635Z,29.10
2022-11-05T02:35:26.990Z,29.03
2022-11-05T02:36:49.418Z,27.77
2022-11-05T02:38:02.459Z,26.90
2022-11-05T02:39:25.179Z,26.70
2022-11-05T02:40:57.870Z,25.97
2022-11-05T02:42:38.194Z,26.63
2022-11-05T02:43:51.510Z,27.93
2022-11-05T02:44:58.950Z,26.07
2022-11-05T02:46:21.512Z,26.17
2022-11-05T02:47:33.184Z,26.03
2022-11-05T02:48:40.674Z,25.53
2022-11-05T02:49:45.263Z,27.33
2022-11-05T02:50:54.636Z,27.13
2022-11-05T02:52:04.283Z,27.00
2022-11-05T02:53:20.201Z,26.70
2022-11-05T02:54:29.021Z,27.47
2022-11-05T02:55:59.508Z,27.13
2022-11-05T02:57:03.763Z,28.03
2022-11-05T02:58:06.125Z,28.17
2022-11-05T02:59:07.730Z,27.57
2022-11-05T03:00:45.554Z,25.80
2022-11-05T03:01:48.593Z,25.77
2022-11-05T03:02:50.337Z,26.40
2022-11-05T03:03:55.825Z,26.30
2022-11-05T03:04:57.860Z,24.60
2022-11-05T03:06:10.679Z,23.97
2022-11-05T03:07:29.192Z,23.30
2022-11-05T03:08:45.855Z,23.53
2022-11-05T03:09:59.523Z,23.63
2022-11-05T03:11:17.733Z,22.73
2022-11-05T03:12:34.030Z,21.67
2022-11-05T03:13:54.057Z,22.77
2022-11-05T03:15:16.567Z,22.27
2022-11-05T03:16:42.361Z,23.40
2022-11-05T03:17:49.457Z,27.73
2022-11-05T03:19:12.890Z,28.83
2022-11-05T03:20:33.077Z,29.00
2022-11-05T03:21:54.884Z,30.27
2022-11-05T03:23:10.046Z,30.00
2022-11-05T03:24:26.533Z,29.37
2022-11-05T03:25:30.440Z,29.90
2022-11-05T03:26:41.529Z,29.80
2022-11-05T03:27:47.830Z,29.97
2022-11-05T03:29:16.582Z,28.57
2022-11-05T03:30:19.852Z,27.00
2022-11-05T03:31:23.538Z,25.17
2022-11-05T03:32:27.347Z,25.33
2022-11-05T03:33:31.404Z,26.07
2022-11-05T03:34:38.896Z,27.07
2022-11-05T03:35:46.536Z,27.00
2022-11-05T03:36:52.295Z,26.17
2022-11-05T03:38:00.469Z,26.13
2022-11-05T03:39:07.839Z,28.03
2022-11-05T03:40:12.205Z,28.90
2022-11-05T03:41:16.334Z,30.73
2022-11-05T03:42:21.400Z,31.13
2022-11-05T03:43:27.501Z,32.37
2022-11-05T03:44:34.555Z,30.57
2022-11-05T03:45:44.562Z,30.30
2022-11-05T03:46:49.439Z,27.53
2022-11-05T03:47:55.508Z,25.83
2022-11-05T03:49:01.740Z,26.27
2022-11-05T03:50:20.324Z,26.17
2022-11-05T03:51:43.986Z,26.43
2022-11-05T03:52:53.498Z,27.47
2022-11-05T03:54:00.197Z,28.33
2022-11-05T03:55:01.937Z,29.30
2022-11-05T03:56:10.535Z,31.07
2022-11-05T03:57:22.392Z,35.07
2022-11-05T03:58:34.725Z,35.23
2022-11-05T03:59:42.830Z,33.40
2022-11-05T04:00:44.680Z,31.07
2022-11-05T04:01:48.051Z,31.50
2022-11-05T04:02:50.381Z,32.17
2022-11-05T04:03:51.961Z,31.77
2022-11-05T04:04:54.866Z,31.50
2022-11-05T04:06:15.240Z,32.80
2022-11-05T04:07:35.827Z,32.63
2022-11-05T04:08:55.980Z,30.33
2022-11-05T04:10:16.380Z,29.67
2022-11-05T04:11:36.797Z,33.10
2022-11-05T04:12:57.068Z,34.43
2022-11-05T04:13:58.582Z,33.27
2022-11-05T04:15:00.227Z,32.87
2022-11-05T04:16:39.871Z,34.17
2022-11-05T04:17:41.375Z,32.43
2022-11-05T04:18:43.392Z,30.20
2022-11-05T04:20:04.354Z,31.77
2022-11-05T04:21:25.818Z,32.83
2022-11-05T04:22:48.503Z,33.07
2022-11-05T04:24:08.511Z,31.83
2022-11-05T04:25:10.910Z,33.30
2022-11-05T04:26:12.414Z,31.73
2022-11-05T04:27:13.943Z,32.47
2022-11-05T04:28:15.859Z,31.77
2022-11-05T04:29:36.017Z,31.40
2022-11-05T04:30:37.584Z,31.70
2022-11-05T04:31:39.122Z,31.07
2022-11-05T04:32:40.647Z,31.23
2022-11-05T04:33:42.195Z,30.53
2022-11-05T04:34:43.728Z,28.37
2022-11-05T04:35:49.287Z,28.07
2022-11-05T04:36:52.418Z,28.07
2022-11-05T04:37:54.074Z,28.23
2022-11-05T04:38:56.059Z,26.53
2022-11-05T04:39:57.647Z,28.33
2022-11-05T04:41:13.339Z,29.63
2022-11-05T04:42:14.897Z,29.77
2022-11-05T04:43:19.356Z,29.63
2022-11-05T04:44:21.160Z,31.30
2022-11-05T04:45:24.713Z,30.60
2022-11-05T04:46:26.271Z,30.23
2022-11-05T04:47:27.927Z,31.70
2022-11-05T04:48:30.087Z,34.10
2022-11-05T04:49:31.599Z,33.90
2022-11-05T04:50:33.213Z,32.43
2022-11-05T04:51:34.806Z,31.37
2022-11-05T04:52:36.462Z,31.40
2022-11-05T04:53:37.955Z,32.13
2022-11-05T04:54:39.546Z,32.00
2022-11-05T04:55:41.064Z,32.03
2022-11-05T04:56:42.583Z,32.20
2022-11-05T04:57:47.963Z,29.57
2022-11-05T04:58:49.917Z,32.07
2022-11-05T04:59:52.184Z,30.27
2022-11-05T05:00:53.730Z,31.70
2022-11-05T05:01:55.355Z,33.60
2022-11-05T05:02:56.947Z,31.37
2022-11-05T05:03:58.463Z,30.10
2022-11-05T05:05:00.152Z,30.07
2022-11-05T05:06:04.020Z,28.53
2022-11-05T05:07:05.917Z,27.77
2022-11-05T05:08:07.432Z,26.47
2022-11-05T05:09:08.950Z,27.40
2022-11-05T05:10:14.235Z,25.93
2022-11-05T05:11:18.295Z,26.80
2022-11-05T05:12:19.976Z,25.73
2022-11-05T05:13:21.668Z,23.37
2022-11-05T05:14:23.289Z,24.47
2022-11-05T05:15:24.818Z,24.60
2022-11-05T05:16:27.297Z,26.00
2022-11-05T05:17:28.957Z,24.90
2022-11-05T05:18:30.447Z,25.33
2022-11-05T05:19:51.939Z,26.67
2022-11-05T05:21:16.767Z,24.53
2022-11-05T05:22:18.294Z,24.23
2022-11-05T05:23:19.828Z,24.00
2022-11-05T05:24:21.690Z,25.80
2022-11-05T05:25:23.337Z,25.23
2022-11-05T05:26:24.938Z,25.20
2022-11-05T05:27:31.102Z,26.27
2022-11-05T05:28:32.692Z,25.47
2022-11-05T05:29:34.203Z,25.60
2022-11-05T05:30:35.702Z,25.23
2022-11-05T05:31:37.961Z,26.53
2022-11-05T05:32:39.470Z,26.30
2022-11-05T05:33:41.240Z,26.00
2022-11-05T05:34:42.861Z,27.23
2022-11-05T05:35:44.375Z,26.23
2022-11-05T05:36:45.962Z,27.00
2022-11-05T05:37:47.475Z,27.57
2022-11-05T05:38:49.049Z,26.83
2022-11-05T05:39:50.659Z,26.77
2022-11-05T05:40:52.250Z,27.33
2022-11-05T05:41:54.124Z,28.57
2022-11-05T05:42:55.986Z,26.93
2022-11-05T05:43:57.537Z,27.53
2022-11-05T05:44:59.059Z,27.67
2022-11-05T05:46:05.191Z,29.53
2022-11-05T05:47:06.762Z,28.10
2022-11-05T05:48:08.342Z,29.23
2022-11-05T05:49:12.661Z,28.03
2022-11-05T05:50:14.384Z,30.07
2022-11-05T05:51:16.214Z,29.53
2022-11-05T05:52:17.932Z,30.43
2022-11-05T05:53:19.459Z,29.90
2022-11-05T05:54:26.311Z,29.77
2022-11-05T05:55:30.707Z,31.77
2022-11-05T05:56:32.233Z,31.03
2022-11-05T05:57:34.310Z,29.47
2022-11-05T05:58:39.268Z,31.87
2022-11-05T05:59:40.803Z,30.27
2022-11-05T06:00:42.327Z,29.43
2022-11-05T06:01:44.020Z,29.60
2022-11-05T06:02:45.740Z,28.23
2022-11-05T06:03:48.733Z,27.70
2022-11-05T06:04:50.305Z,27.60
2022-11-05T06:05:51.810Z,27.67
2022-11-05T06:06:53.299Z,28.13
2022-11-05T06:07:56.415Z,26.93
2022-11-05T06:08:57.979Z,27.77
2022-11-05T06:09:59.528Z,27.17
2022-11-05T06:11:02.209Z,25.90
2022-11-05T06:12:04.025Z,25.33
2022-11-05T06:13:05.565Z,24.93
2022-11-05T06:14:10.377Z,23.63
2022-11-05T06:15:11.932Z,23.90
2022-11-05T06:16:13.564Z,22.57
2022-11-05T06:17:15.191Z,24.50
2022-11-05T06:18:16.687Z,25.03
2022-11-05T06:19:18.217Z,24.60
2022-11-05T06:20:19.775Z,25.30
2022-11-05T06:21:21.342Z,24.83
2022-11-05T06:22:22.857Z,23.97
2022-11-05T06:23:24.451Z,24.30
2022-11-05T06:24:25.999Z,24.53
2022-11-05T06:25:27.557Z,25.77
2022-11-05T06:26:29.489Z,27.37
2022-11-05T06:27:31.401Z,25.33
2022-11-05T06:28:33.615Z,26.07
2022-11-05T06:29:35.115Z,25.40
2022-11-05T06:30:36.631Z,25.47
2022-11-05T06:31:38.409Z,24.30
2022-11-05T06:32:40.021Z,24.90
2022-11-05T06:33:41.742Z,24.43
2022-11-05T06:34:43.290Z,23.40
2022-11-05T06:35:44.792Z,24.10
2022-11-05T06:36:46.338Z,23.73
2022-11-05T06:37:47.852Z,24.47
2022-11-05T06:38:49.494Z,24.90
2022-11-05T06:39:51.058Z,24.47
2022-11-05T06:40:52.595Z,25.80
2022-11-05T06:42:17.465Z,24.40
2022-11-05T06:43:15.646Z,25.40
2022-11-05T06:44:17.296Z,26.03
2022-11-05T06:45:19.046Z,23.83
2022-11-05T06:46:20.669Z,24.20
2022-11-05T06:47:22.308Z,25.83
2022-11-05T06:48:25.471Z,25.47
2022-11-05T06:49:27.069Z,23.63
2022-11-05T06:50:29.000Z,24.67
2022-11-05T06:51:30.574Z,24.40
2022-11-05T06:52:34.809Z,23.53
2022-11-05T06:53:51.699Z,23.43
2022-11-05T06:54:53.388Z,21.93
2022-11-05T06:55:55.068Z,22.87
2022-11-05T06:56:56.659Z,22.60
2022-11-05T06:57:58.274Z,23.30
2022-11-05T06:58:59.850Z,24.43
2022-11-05T07:00:05.760Z,22.37
2022-11-05T07:01:10.519Z,24.00
2022-11-05T07:02:13.568Z,24.13
2022-11-05T07:03:15.449Z,25.07
2022-11-05T07:04:17.133Z,24.37
2022-11-05T07:05:18.731Z,24.47
2022-11-05T07:06:22.138Z,25.33
2022-11-05T07:07:23.684Z,24.70
2022-11-05T07:08:25.326Z,25.13
2022-11-05T07:09:28.458Z,24.97
2022-11-05T07:10:30.059Z,24.67
2022-11-05T07:11:31.800Z,26.23
2022-11-05T07:12:33.403Z,26.27
2022-11-05T07:13:34.983Z,25.93
2022-11-05T07:14:36.585Z,25.10
2022-11-05T07:15:38.527Z,25.37
2022-11-05T07:16:40.132Z,25.70
2022-11-05T07:17:41.991Z,25.77
2022-11-05T07:18:43.834Z,26.20
2022-11-05T07:19:45.370Z,24.33
2022-11-05T07:20:46.978Z,26.37
2022-11-05T07:21:48.806Z,24.83
2022-11-05T07:22:50.366Z,26.07
2022-11-05T07:23:51.983Z,25.00
2022-11-05T07:24:53.516Z,25.70
2022-11-05T07:25:55.081Z,25.17
2022-11-05T07:26:56.615Z,25.23
2022-11-05T07:27:58.589Z,23.93
2022-11-05T07:29:00.138Z,25.13
2022-11-05T07:30:06.636Z,24.80
2022-11-05T07:31:08.185Z,24.23
2022-11-05T07:32:09.879Z,23.80
2022-11-05T07:33:11.997Z,23.33
2022-11-05T07:34:13.791Z,22.53
2022-11-05T07:35:15.348Z,22.97
2022-11-05T07:36:16.871Z,21.40
2022-11-05T07:37:18.442Z,22.03
2022-11-05T07:38:19.956Z,22.03
2022-11-05T07:39:21.618Z,21.33
2022-11-05T07:40:26.210Z,21.20
2022-11-05T07:41:30.754Z,22.03
2022-11-05T07:42:35.281Z,21.10
2022-11-05T07:43:36.830Z,20.57
2022-11-05T07:44:38.349Z,20.60
2022-11-05T07:45:39.886Z,21.43
2022-11-05T07:46:42.028Z,20.58
2022-11-05T07:47:52.298Z,20.30
2022-11-05T07:48:53.837Z,19.10
2022-11-05T07:49:55.377Z,20.73
2022-11-05T07:50:56.925Z,20.30
2022-11-05T07:51:58.668Z,19.63
2022-11-05T07:53:02.232Z,21.33
2022-11-05T07:54:03.963Z,20.15
2022-11-05T07:55:06.105Z,20.90
2022-11-05T07:56:08.554Z,18.52
2022-11-05T07:57:10.268Z,19.10
2022-11-05T07:58:11.942Z,19.98
2022-11-05T07:59:13.478Z,19.60
2022-11-05T08:00:18.031Z,19.33
2022-11-05T08:01:19.731Z,19.13
2022-11-05T08:02:21.705Z,18.43
2022-11-05T08:03:23.564Z,19.40
2022-11-05T08:04:25.264Z,18.37
2022-11-05T08:05:27.800Z,17.60
2022-11-05T08:06:29.323Z,18.13
2022-11-05T08:07:30.859Z,18.38
2022-11-05T08:08:32.789Z,16.50
2022-11-05T08:09:34.601Z,16.02
2022-11-05T08:10:37.055Z,15.70
2022-11-05T08:11:38.565Z,16.67
2022-11-05T08:12:40.073Z,16.27
2022-11-05T08:13:42.856Z,15.85
2022-11-05T08:14:44.408Z,16.33
2022-11-05T08:15:45.925Z,16.38
2022-11-05T08:16:49.344Z,16.30
2022-11-05T08:17:58.078Z,16.63
2022-11-05T08:18:59.646Z,15.87
2022-11-05T08:20:01.238Z,16.13
2022-11-05T08:21:04.472Z,17.83
2022-11-05T08:22:06.004Z,16.90
2022-11-05T08:23:08.004Z,20.20
2022-11-05T08:24:09.841Z,16.92
2022-11-05T08:25:13.023Z,16.70
2022-11-05T08:26:14.624Z,17.27
2022-11-05T08:27:16.237Z,16.57
2022-11-05T08:28:17.920Z,16.83
2022-11-05T08:29:19.451Z,16.07
2022-11-05T08:30:20.981Z,16.63
2022-11-05T08:31:22.527Z,17.80
2022-11-05T08:32:24.041Z,17.70
2022-11-05T08:33:26.290Z,16.63
2022-11-05T08:34:27.807Z,17.10
2022-11-05T08:35:29.797Z,16.33
2022-11-05T08:36:31.360Z,16.50
2022-11-05T08:37:32.880Z,16.10
2022-11-05T08:38:34.460Z,16.63
2022-11-05T08:39:35.987Z,16.27
2022-11-05T08:40:37.783Z,16.27
2022-11-05T08:41:40.614Z,16.17
2022-11-05T08:42:42.131Z,16.33
2022-11-05T08:43:43.638Z,15.70
2022-11-05T08:44:45.236Z,15.87
2022-11-05T08:45:46.919Z,16.07
2022-11-05T08:46:48.603Z,15.33
2022-11-05T08:47:50.462Z,15.23
2022-11-05T08:48:52.043Z,15.67
2022-11-05T08:49:54.614Z,16.07
2022-11-05T08:50:56.170Z,16.43
2022-11-05T08:51:58.004Z,16.13
2022-11-05T08:52:59.695Z,16.17
2022-11-05T08:54:01.318Z,17.60
2022-11-05T08:55:02.847Z,16.80
2022-11-05T08:56:04.521Z,16.50
2022-11-05T08:57:06.041Z,17.70
2022-11-05T08:58:12.554Z,16.67
2022-11-05T08:59:14.356Z,17.98
2022-11-05T09:00:16.362Z,17.15
2022-11-05T09:01:18.053Z,16.23
2022-11-05T09:02:19.732Z,17.52
2022-11-05T09:03:21.391Z,16.08
2022-11-05T09:04:23.193Z,16.58
2022-11-05T09:05:24.718Z,15.48
2022-11-05T09:06:26.259Z,15.13
2022-11-05T09:07:27.802Z,16.30
2022-11-05T09:08:29.456Z,17.15
2022-11-05T09:09:31.070Z,15.82
2022-11-05T09:10:32.835Z,16.35
2022-11-05T09:12:05.317Z,15.80
2022-11-05T09:12:56.502Z,16.02
2022-11-05T09:13:58.057Z,15.95
2022-11-05T09:14:59.565Z,15.65
2022-11-05T09:16:02.032Z,15.90
2022-11-05T09:17:03.697Z,15.95
2022-11-05T09:18:05.698Z,16.88
2022-11-05T09:19:07.207Z,16.02
2022-11-05T09:20:10.968Z,16.00
2022-11-05T09:21:12.635Z,15.10
2022-11-05T09:22:14.538Z,15.35
2022-11-05T09:23:16.255Z,14.60
2022-11-05T09:24:17.805Z,15.90
2022-11-05T09:25:19.361Z,15.48
2022-11-05T09:26:20.897Z,14.23
2022-11-05T09:27:22.560Z,14.65
2022-11-05T09:28:25.516Z,15.25
2022-11-05T09:29:27.051Z,15.07
2022-11-05T09:30:28.567Z,13.80
2022-11-05T09:31:30.121Z,13.27
2022-11-05T09:32:32.497Z,13.65
2022-11-05T09:33:35.619Z,13.20
2022-11-05T09:34:37.141Z,12.57
2022-11-05T09:35:40.207Z,13.02
2022-11-05T09:36:41.770Z,12.10
2022-11-05T09:37:45.994Z,11.68
2022-11-05T09:38:47.585Z,12.18
2022-11-05T09:39:49.179Z,11.88
2022-11-05T09:41:02.634Z,11.90
2022-11-05T09:42:08.469Z,11.73
2022-11-05T09:43:18.858Z,12.68
2022-11-05T09:44:23.807Z,12.23
2022-11-05T09:45:28.459Z,11.60
2022-11-05T09:47:01.639Z,12.85
2022-11-05T09:48:14.825Z,11.27
2022-11-05T09:49:39.966Z,12.27
2022-11-05T09:50:45.246Z,12.27
2022-11-05T09:51:46.854Z,12.65
2022-11-05T09:52:48.444Z,12.88
2022-11-05T09:53:50.792Z,12.30
2022-11-05T09:54:53.273Z,13.00
2022-11-05T09:55:58.707Z,11.93
2022-11-05T09:57:02.761Z,12.10
2022-11-05T09:58:14.708Z,12.38
2022-11-05T09:59:18.138Z,12.90
2022-11-05T10:00:20.128Z,11.25
2022-11-05T10:01:26.137Z,12.10
2022-11-05T10:02:38.677Z,11.63
2022-11-05T10:03:46.550Z,11.80
2022-11-05T10:04:53.162Z,14.40
2022-11-05T10:06:03.569Z,13.52
2022-11-05T10:07:07.614Z,12.27
2022-11-05T10:08:22.389Z,12.45
2022-11-05T10:09:31.466Z,11.25
2022-11-05T10:10:41.085Z,11.83
2022-11-05T10:11:50.702Z,11.07
2022-11-05T10:12:56.141Z,11.30
2022-11-05T10:14:06.169Z,11.10
2022-11-05T10:15:17.134Z,10.95
2022-11-05T10:16:35.165Z,10.98
2022-11-05T10:17:40.162Z,11.00
2022-11-05T10:18:47.447Z,11.13
2022-11-05T10:20:02.662Z,11.03
2022-11-05T10:21:05.483Z,10.73
2022-11-05T10:22:13.664Z,11.10
2022-11-05T10:23:18.131Z,11.57
2022-11-05T10:24:21.341Z,12.77
2022-11-05T10:25:27.477Z,11.65
2022-11-05T10:26:29.893Z,11.73
2022-11-05T10:27:35.750Z,11.20
2022-11-05T10:28:37.498Z,11.65
2022-11-05T10:29:39.074Z,11.93
2022-11-05T10:30:40.610Z,10.80
2022-11-05T10:31:43.214Z,12.32
2022-11-05T10:32:46.439Z,11.88
2022-11-05T10:34:00.332Z,11.48
2022-11-05T10:35:05.263Z,11.50
2022-11-05T10:36:11.656Z,10.70
2022-11-05T10:37:13.271Z,12.20
2022-11-05T10:38:15.316Z,12.02
2022-11-05T10:39:19.488Z,12.15
2022-11-05T10:40:29.943Z,10.93
2022-11-05T10:41:44.353Z,10.20
2022-11-05T10:43:02.365Z,11.15
2022-11-05T10:44:19.047Z,10.77
2022-11-05T10:45:31.546Z,9.68
2022-11-05T10:46:53.305Z,10.90
2022-11-05T10:48:22.541Z,9.88
2022-11-05T10:49:36.225Z,10.23
2022-11-05T10:50:39.393Z,10.82
2022-11-05T10:51:40.944Z,10.98
2022-11-05T10:52:55.787Z,10.63
2022-11-05T10:54:03.617Z,9.73
2022-11-05T10:55:16.334Z,8.95
2022-11-05T10:56:32.107Z,10.40
2022-11-05T10:57:39.459Z,9.07
2022-11-05T10:58:54.916Z,8.68
2022-11-05T11:00:22.269Z,5.88
2022-11-05T11:01:26.234Z,8.20
2022-11-05T11:02:30.291Z,8.38
2022-11-05T11:03:46.854Z,8.50
2022-11-05T11:04:53.681Z,7.72
2022-11-05T11:06:04.819Z,7.88
2022-11-05T11:07:21.414Z,7.93
2022-11-05T11:08:24.951Z,8.45
2022-11-05T11:09:36.435Z,7.25
2022-11-05T11:10:48.855Z,6.38
2022-11-05T11:12:02.613Z,8.32
2022-11-05T11:13:05.738Z,8.20
2022-11-05T11:14:11.798Z,8.05
2022-11-05T11:15:33.601Z,7.68
2022-11-05T11:16:38.480Z,8.30
2022-11-05T11:17:40.029Z,7.93
2022-11-05T11:18:43.742Z,7.88
2022-11-05T11:19:45.426Z,7.15
2022-11-05T11:20:47.003Z,7.05
2022-11-05T11:22:13.028Z,7.85
2022-11-05T11:23:16.903Z,7.75
2022-11-05T11:24:23.294Z,7.75
2022-11-05T11:25:27.002Z,8.10
2022-11-05T11:26:39.310Z,7.25
2022-11-05T11:27:40.942Z,7.65
2022-11-05T11:29:08.385Z,7.47
2022-11-05T11:30:17.924Z,8.77
2022-11-05T11:31:25.316Z,8.00
2022-11-05T11:32:33.243Z,7.72
2022-11-05T11:33:37.837Z,7.57
2022-11-05T11:34:40.625Z,7.25
2022-11-05T11:35:46.308Z,8.98
2022-11-05T11:36:53.679Z,8.20
2022-11-05T11:37:57.147Z,8.40
2022-11-05T11:39:01.133Z,8.07
2022-11-05T11:40:21.482Z,7.65
2022-11-05T11:41:27.255Z,7.97
2022-11-05T11:42:36.163Z,8.25
2022-11-05T11:43:41.256Z,7.35
2022-11-05T11:44:46.126Z,7.65
2022-11-05T11:45:53.787Z,7.97
2022-11-05T11:47:10.926Z,8.43
2022-11-05T11:48:22.874Z,8.18
2022-11-05T11:49:46.375Z,8.20
2022-11-05T11:50:49.322Z,8.47
2022-11-05T11:51:59.725Z,7.63
2022-11-05T11:53:30.377Z,8.35
2022-11-05T11:54:34.822Z,7.35
2022-11-05T11:55:36.452Z,8.23
2022-11-05T11:56:46.317Z,7.53
2022-11-05T11:57:50.967Z,7.35
2022-11-05T11:58:57.462Z,7.40
2022-11-05T12:00:08.888Z,8.02
2022-11-05T12:01:28.793Z,7.43
2022-11-05T12:02:40.560Z,8.60
2022-11-05T12:03:51.220Z,7.70
2022-11-05T12:05:26.914Z,8.35
2022-11-05T12:06:54.195Z,7.85
2022-11-05T12:08:01.504Z,7.68
2022-11-05T12:09:35.081Z,7.97
2022-11-05T12:10:53.474Z,7.93
2022-11-05T12:11:59.432Z,7.90
2022-11-05T12:13:14.644Z,7.30
2022-11-05T12:15:02.818Z,8.25
2022-11-05T12:16:33.910Z,8.38
2022-11-05T12:18:01.266Z,8.75
2022-11-05T12:19:05.388Z,7.85
2022-11-05T12:20:15.880Z,7.38
2022-11-05T12:21:52.139Z,7.32
2022-11-05T12:23:19.950Z,7.85
2022-11-05T12:24:21.877Z,8.65
2022-11-05T12:25:34.047Z,7.20
2022-11-05T12:26:54.860Z,6.65
2022-11-05T12:28:24.251Z,8.23
2022-11-05T12:29:38.564Z,7.55
2022-11-05T12:30:46.254Z,7.13
2022-11-05T12:31:56.912Z,6.93
2022-11-05T12:33:21.731Z,6.78
2022-11-05T12:34:29.165Z,6.45
2022-11-05T12:35:48.854Z,6.82
2022-11-05T12:37:02.090Z,6.22
2022-11-05T12:38:31.815Z,6.68
2022-11-05T12:39:54.116Z,7.20
2022-11-05T12:41:10.797Z,5.93
2022-11-05T12:42:29.465Z,6.47
2022-11-05T12:44:09.285Z,6.30
2022-11-05T12:45:19.639Z,6.38
2022-11-05T12:46:53.335Z,5.95
2022-11-05T12:47:57.608Z,5.82
2022-11-05T12:49:01.784Z,6.47
2022-11-05T12:50:27.725Z,5.68
2022-11-05T12:51:50.163Z,6.47
2022-11-05T12:53:13.263Z,6.40
2022-11-05T12:54:21.044Z,5.60
2022-11-05T12:55:25.411Z,5.60
2022-11-05T12:56:41.362Z,6.05
2022-11-05T12:57:47.667Z,6.32
2022-11-05T12:59:01.211Z,6.15
2022-11-05T13:00:27.027Z,5.97
2022-11-05T13:01:36.914Z,5.80
2022-11-05T13:02:49.099Z,5.97
2022-11-05T13:04:01.538Z,5.80
2022-11-05T13:05:33.430Z,5.55
2022-11-05T13:06:40.393Z,5.32
2022-11-05T13:07:53.281Z,5.47
2022-11-05T13:09:04.365Z,5.47
2022-11-05T13:10:23.455Z,5.85
2022-11-05T13:12:02.028Z,5.50
2022-11-05T13:13:18.832Z,5.53
2022-11-05T13:14:28.278Z,5.13
2022-11-05T13:15:37.366Z,5.80
2022-11-05T13:16:46.209Z,5.50
2022-11-05T13:17:52.861Z,5.25
2022-11-05T13:19:19.159Z,5.70
2022-11-05T13:20:24.463Z,5.47
2022-11-05T13:21:29.523Z,5.78
2022-11-05T13:22:46.714Z,5.32
2022-11-05T13:23:54.816Z,6.22
2022-11-05T13:25:01.091Z,6.18
2022-11-05T13:26:11.788Z,5.68
2022-11-05T13:27:19.027Z,6.32
2022-11-05T13:28:23.298Z,5.70
2022-11-05T13:29:35.282Z,6.00
2022-11-05T13:30:42.384Z,5.68
2022-11-05T13:31:51.708Z,5.65
2022-11-05T13:33:00.104Z,5.85
2022-11-05T13:34:06.860Z,5.70
2022-11-05T13:35:19.515Z,6.13
2022-11-05T13:36:47.443Z,5.75
2022-11-05T13:38:14.780Z,6.00
2022-11-05T13:39:26.195Z,5.00
2022-11-05T13:41:24.639Z,6.55
2022-11-05T13:42:55.358Z,5.73
2022-11-05T13:44:34.308Z,5.18
2022-11-05T13:45:53.860Z,5.90
2022-11-05T13:47:22.905Z,5.00
2022-11-05T13:48:32.230Z,5.20
2022-11-05T13:49:41.276Z,5.40
2022-11-05T13:51:24.223Z,5.63
2022-11-05T13:52:37.965Z,5.35
2022-11-05T13:53:42.835Z,6.38
2022-11-05T13:55:08.216Z,6.18
2022-11-05T13:56:54.352Z,6.00
2022-11-05T13:58:01.942Z,6.00
2022-11-05T13:59:18.739Z,6.20
2022-11-05T14:00:23.199Z,5.72
2022-11-05T14:01:27.381Z,6.20
2022-11-05T14:02:55.525Z,5.93
2022-11-05T14:03:57.363Z,6.28
2022-11-05T14:05:01.981Z,6.18
2022-11-05T14:06:06.859Z,5.95
2022-11-05T14:07:24.882Z,6.43
2022-11-05T14:08:29.690Z,6.22
2022-11-05T14:09:35.602Z,6.85
2022-11-05T14:10:38.818Z,6.20
2022-11-05T14:11:43.999Z,6.55
2022-11-05T14:12:52.747Z,6.47
2022-11-05T14:13:58.746Z,6.72
2022-11-05T14:15:08.619Z,7.03
2022-11-05T14:16:16.346Z,6.65
2022-11-05T14:17:28.270Z,6.45
2022-11-05T14:18:38.950Z,6.75
2022-11-05T14:20:06.860Z,6.85
2022-11-05T14:21:26.542Z,7.03
2022-11-05T14:22:33.771Z,6.13
2022-11-05T14:23:40.879Z,6.57
2022-11-05T14:24:44.238Z,6.65
2022-11-05T14:25:45.717Z,6.63
2022-11-05T14:27:02.726Z,7.18
2022-11-05T14:28:37.782Z,6.33
2022-11-05T14:29:43.532Z,6.93
2022-11-05T14:30:47.234Z,6.27
2022-11-05T14:32:08.498Z,6.37
2022-11-05T14:33:24.315Z,7.17
2022-11-05T14:35:04.147Z,6.83
2022-11-05T14:36:20.875Z,7.07
2022-11-05T14:37:28.798Z,7.67
2022-11-05T14:38:30.358Z,6.83
2022-11-05T14:39:32.510Z,7.60
2022-11-05T14:40:44.331Z,7.10
2022-11-05T14:41:58.795Z,7.10